Saint-Cesaire, Canada
Current Conditions -  °F | °C
As of 3:00 AM on Saturday 25 Oct 2014 (Local Time) from CYHU Reporting Station
Overcast Overcast  
Wind Chill: 37°   Ceiling: 16000
Heat Index: 37°   Visibility: 9mi
Dew Point: 36°   Wind: 2mph
Humidity: 93%   Direction: 140°SE
Pressure: 29.75"   Gusts: NA
Location:  45.4°N, 73°W
Report Text: CYHU 250700Z AUTO 14002KT 9SM OVC160 03/02 A2975 RMK SLP074
Loading
Personal Weather Stations






























Interactive Weather Map
Tropical Storm Tracking
New forecast layout! Learn more

10-Day Weather Forecast

Advertisements
Track Severe Weather on mobile